Time;durP1;ratioP1;P1;durP2;ratioP2;P2;SDS_P1;SDS_P2;PMS_P1;PMS_P2;Temp;Humidity;BMP_temperature;BMP_pressure;BME280_temperature;BME280_humidity;BME280_pressure;Samples;Min_cycle;Max_cycle;Signal;HPM_P1;HPM_P2
2023/03/16 00:00:21;;;;;;;;;;;;;;;;;;1036614;28;4081;-55
2023/03/16 00:01:11;;;;;;;;;;;;;;;;;;1035013;28;2738;-56
2023/03/16 00:01:41;;;;;;;;;;;;;;;;;;1036230;28;3929;-54
2023/03/16 00:02:12;;;;;;;;;;;;;;;;;;1032994;28;2826;-54
2023/03/16 00:02:42;;;;;;;;;;;;;;;;;;1034370;28;4023;-54
2023/03/16 00:03:18;;;;;;;;;;;;;;;;;;1038095;28;1659;-54
2023/03/16 00:03:48;;;;;;;;;;;;;;;;;;1036543;28;3843;-55
2023/03/16 00:04:18;;;;;;;;;;;;;;;;;;1036621;28;3939;-53
2023/03/16 00:04:48;;;;;;;;;;;;;;;;;;1037928;28;2540;-54
2023/03/16 00:05:19;;;;;;;;;;;;;;;;;;1035128;28;4072;-55
2023/03/16 00:05:51;;;;;;;;;;;;;;;;;;1036659;28;2719;-56
2023/03/16 00:06:21;;;;;;;;;;;;;;;;;;1035067;28;4132;-56
2023/03/16 00:06:51;;;;;;;;;;;;;;;;;;1037392;28;2581;-56
2023/03/16 00:07:21;;;;;;;;;;;;;;;;;;1037684;28;3903;-54
2023/03/16 00:07:52;;;;;;;;;;;;;;;;;;1036143;28;2225;-55
2023/03/16 00:08:22;;;;;;;;;;;;;;;;;;1035695;28;3940;-55
2023/03/16 00:08:57;;;;;;;;;;;;;;;;;;1041320;28;1788;-53
2023/03/16 00:09:30;;;;;;;;;;;;;;;;;;1042313;28;4024;-55
2023/03/16 00:10:00;;;;;;;;;;;;;;;;;;1039509;28;2333;-54
2023/03/16 00:10:30;;;;;;;;;;;;;;;;;;1039944;28;4204;-54
2023/03/16 00:11:01;;;;;;;;;;;;;;;;;;1036869;28;2745;-53
2023/03/16 00:11:32;;;;;;;;;;;;;;;;;;1037361;28;3828;-56
2023/03/16 00:12:02;;;;;;;;;;;;;;;;;;1038021;28;3159;-55
2023/03/16 00:12:33;;;;;;;;;;;;;;;;;;1035002;28;4056;-52
2023/03/16 00:13:04;;;;;;;;;;;;;;;;;;1038464;28;2714;-54
2023/03/16 00:13:34;;;;;;;;;;;;;;;;;;1035018;28;3961;-53
2023/03/16 00:14:04;;;;;;;;;;;;;;;;;;1038102;28;1848;-53
2023/03/16 00:14:34;;;;;;;;;;;;;;;;;;1036275;28;3883;-54
2023/03/16 00:15:05;;;;;;;;;;;;;;;;;;1036571;28;2651;-55
2023/03/16 00:15:35;;;;;;;;;;;;;;;;;;1035757;28;3886;-53
2023/03/16 00:16:06;;;;;;;;;;;;;;;;;;1036517;28;2793;-54
2023/03/16 00:16:36;;;;;;;;;;;;;;;;;;1037964;28;3836;-53
2023/03/16 00:17:07;;;;;;;;;;;;;;;;;;1036835;28;2784;-55
2023/03/16 00:17:37;;;;;;;;;;;;;;;;;;1037605;28;4012;-54
2023/03/16 00:18:08;;;;;;;;;;;;;;;;;;1036587;28;2798;-56
2023/03/16 00:18:40;;;;;;;;;;;;;;;;;;1036872;28;3864;-57
2023/03/16 00:19:11;;;;;;;;;;;;;;;;;;1037778;28;1613;-55
2023/03/16 00:19:45;;;;;;;;;;;;;;;;;;1037653;28;3977;-55
2023/03/16 00:20:16;;;;;;;;;;;;;;;;;;1036741;28;3946;-56
2023/03/16 00:20:50;;;;;;;;;;;;;;;;;;1039013;28;2490;-55
2023/03/16 00:21:21;;;;;;;;;;;;;;;;;;1036893;28;4039;-54
2023/03/16 00:21:51;;;;;;;;;;;;;;;;;;1038262;28;3440;-54
2023/03/16 00:22:23;;;;;;;;;;;;;;;;;;1038753;28;4058;-53
2023/03/16 00:22:53;;;;;;;;;;;;;;;;;;1034186;28;2268;-56
2023/03/16 00:23:27;;;;;;;;;;;;;;;;;;1037972;28;4115;-54
2023/03/16 00:23:58;;;;;;;;;;;;;;;;;;1038713;28;1910;-53
2023/03/16 00:24:28;;;;;;;;;;;;;;;;;;1038322;28;4062;-55
2023/03/16 00:24:58;;;;;;;;;;;;;;;;;;1038968;28;1705;-54
2023/03/16 00:25:28;;;;;;;;;;;;;;;;;;1036466;28;4085;-54
2023/03/16 00:25:59;;;;;;;;;;;;;;;;;;1038095;28;1783;-56
2023/03/16 00:26:30;;;;;;;;;;;;;;;;;;1038602;28;4055;-54
2023/03/16 00:27:00;;;;;;;;;;;;;;;;;;1037851;28;2693;-55
2023/03/16 00:27:31;;;;;;;;;;;;;;;;;;1037747;28;3830;-56
2023/03/16 00:28:02;;;;;;;;;;;;;;;;;;1036820;28;2875;-56
2023/03/16 00:28:36;;;;;;;;;;;;;;;;;;1034873;28;4444;-52
2023/03/16 00:29:06;;;;;;;;;;;;;;;;;;1039009;28;1575;-52
2023/03/16 00:29:36;;;;;;;;;;;;;;;;;;1038752;28;4038;-55
2023/03/16 00:30:07;;;;;;;;;;;;;;;;;;1034942;28;2597;-53
2023/03/16 00:30:37;;;;;;;;;;;;;;;;;;1037586;28;3999;-55
2023/03/16 00:31:10;;;;;;;;;;;;;;;;;;1039982;28;1879;-55
2023/03/16 00:31:44;;;;;;;;;;;;;;;;;;1037559;28;4013;-53
2023/03/16 00:32:18;;;;;;;;;;;;;;;;;;1038532;28;3016;-53
2023/03/16 00:32:48;;;;;;;;;;;;;;;;;;1035805;28;3876;-54
2023/03/16 00:33:18;;;;;;;;;;;;;;;;;;1036632;28;3991;-55
2023/03/16 00:33:48;;;;;;;;;;;;;;;;;;1037772;28;1757;-51
2023/03/16 00:34:19;;;;;;;;;;;;;;;;;;1037745;28;4087;-54
2023/03/16 00:34:50;;;;;;;;;;;;;;;;;;1038172;28;2797;-55
2023/03/16 00:35:20;;;;;;;;;;;;;;;;;;1036243;28;4039;-53
2023/03/16 00:36:00;;;;;;;;;;;;;;;;;;1040165;28;1684;-55
2023/03/16 00:36:32;;;;;;;;;;;;;;;;;;1038658;28;4029;-53
2023/03/16 00:37:03;;;;;;;;;;;;;;;;;;1036917;28;2832;-54
2023/03/16 00:37:33;;;;;;;;;;;;;;;;;;1039711;28;4004;-54
2023/03/16 00:38:03;;;;;;;;;;;;;;;;;;1038628;28;1657;-54
2023/03/16 00:38:35;;;;;;;;;;;;;;;;;;1039005;28;3901;-54
2023/03/16 00:39:05;;;;;;;;;;;;;;;;;;1038462;28;2722;-53
2023/03/16 00:39:36;;;;;;;;;;;;;;;;;;1038368;28;4065;-57
2023/03/16 00:40:08;;;;;;;;;;;;;;;;;;1038556;28;2042;-55
2023/03/16 00:40:39;;;;;;;;;;;;;;;;;;1039519;28;3801;-55
2023/03/16 00:41:10;;;;;;;;;;;;;;;;;;1039656;28;1840;-54
2023/03/16 00:41:41;;;;;;;;;;;;;;;;;;1037911;28;3922;-57
2023/03/16 00:42:13;;;;;;;;;;;;;;;;;;1038845;28;1764;-55
2023/03/16 00:42:43;;;;;;;;;;;;;;;;;;1039251;28;3987;-53
2023/03/16 00:43:17;;;;;;;;;;;;;;;;;;1038741;28;1775;-55
2023/03/16 00:43:47;;;;;;;;;;;;;;;;;;1037704;28;4038;-55
2023/03/16 00:44:18;;;;;;;;;;;;;;;;;;1039021;28;4061;-54
2023/03/16 00:44:48;;;;;;;;;;;;;;;;;;1039919;28;1464;-54
2023/03/16 00:45:18;;;;;;;;;;;;;;;;;;1036725;28;4056;-55
2023/03/16 00:45:48;;;;;;;;;;;;;;;;;;1038758;28;2839;-53
2023/03/16 00:46:25;;;;;;;;;;;;;;;;;;1036864;28;3973;-57
2023/03/16 00:46:55;;;;;;;;;;;;;;;;;;1039934;28;1605;-55
2023/03/16 00:47:27;;;;;;;;;;;;;;;;;;1038483;28;3868;-55
2023/03/16 00:47:57;;;;;;;;;;;;;;;;;;1039318;28;1709;-53
2023/03/16 00:48:27;;;;;;;;;;;;;;;;;;1037239;28;3811;-56
2023/03/16 00:48:58;;;;;;;;;;;;;;;;;;1039224;28;2924;-57
2023/03/16 00:49:28;;;;;;;;;;;;;;;;;;1037487;28;4231;-54
2023/03/16 00:49:59;;;;;;;;;;;;;;;;;;1036015;28;2679;-54
2023/03/16 00:50:30;;;;;;;;;;;;;;;;;;1035779;28;3864;-54
2023/03/16 00:51:05;;;;;;;;;;;;;;;;;;1039414;28;2888;-56
2023/03/16 00:51:35;;;;;;;;;;;;;;;;;;1037038;28;3780;-54
2023/03/16 00:52:06;;;;;;;;;;;;;;;;;;1037760;28;2971;-55
2023/03/16 00:52:36;;;;;;;;;;;;;;;;;;1036472;28;4031;-53
2023/03/16 00:53:06;;;;;;;;;;;;;;;;;;1032245;28;1895;-56
2023/03/16 00:53:37;;;;;;;;;;;;;;;;;;1034086;28;3844;-54
2023/03/16 00:54:08;;;;;;;;;;;;;;;;;;1033290;28;3179;-54
2023/03/16 00:54:38;;;;;;;;;;;;;;;;;;1033741;28;3836;-53
2023/03/16 00:55:08;;;;;;;;;;;;;;;;;;1036101;28;2857;-53
2023/03/16 00:55:39;;;;;;;;;;;;;;;;;;1033299;28;3912;-54
2023/03/16 00:56:09;;;;;;;;;;;;;;;;;;1032174;28;2854;-53
2023/03/16 00:56:41;;;;;;;;;;;;;;;;;;1031647;28;3874;-53
2023/03/16 00:57:13;;;;;;;;;;;;;;;;;;1033384;28;2754;-52
2023/03/16 00:57:44;;;;;;;;;;;;;;;;;;1033719;28;3867;-54
2023/03/16 00:58:14;;;;;;;;;;;;;;;;;;1033412;28;2370;-52
2023/03/16 00:58:44;;;;;;;;;;;;;;;;;;1033479;28;4099;-55
2023/03/16 00:59:15;;;;;;;;;;;;;;;;;;1034267;28;3032;-53
2023/03/16 00:59:46;;;;;;;;;;;;;;;;;;1032361;28;3647;-56
2023/03/16 01:00:19;;;;;;;;;;;;;;;;;;1031250;28;4063;-55
2023/03/16 01:00:52;;;;;;;;;;;;;;;;;;1033163;28;2735;-57
2023/03/16 01:01:22;;;;;;;;;;;;;;;;;;1033750;28;3988;-56
2023/03/16 01:01:53;;;;;;;;;;;;;;;;;;1034327;28;2162;-55
2023/03/16 01:02:23;;;;;;;;;;;;;;;;;;1032228;28;4433;-55
2023/03/16 01:02:53;;;;;;;;;;;;;;;;;;1034873;28;2175;-53
2023/03/16 01:03:24;;;;;;;;;;;;;;;;;;1033394;28;4444;-56
2023/03/16 01:03:54;;;;;;;;;;;;;;;;;;1033494;28;2833;-55
2023/03/16 01:04:25;;;;;;;;;;;;;;;;;;1034411;28;4190;-52
2023/03/16 01:04:55;;;;;;;;;;;;;;;;;;1031478;28;2523;-55
2023/03/16 01:05:25;;;;;;;;;;;;;;;;;;1033120;28;4164;-56
2023/03/16 01:05:58;;;;;;;;;;;;;;;;;;1034633;28;2867;-56
2023/03/16 01:06:29;;;;;;;;;;;;;;;;;;1032501;28;3771;-53
2023/03/16 01:06:59;;;;;;;;;;;;;;;;;;1032702;28;2596;-54
2023/03/16 01:07:30;;;;;;;;;;;;;;;;;;1033180;28;5157;-52
2023/03/16 01:08:03;;;;;;;;;;;;;;;;;;1034938;28;2426;-53
2023/03/16 01:08:33;;;;;;;;;;;;;;;;;;1034367;28;4407;-53
2023/03/16 01:09:04;;;;;;;;;;;;;;;;;;1034875;28;2656;-53
2023/03/16 01:09:35;;;;;;;;;;;;;;;;;;1033773;28;4062;-55
2023/03/16 01:10:06;;;;;;;;;;;;;;;;;;1031264;28;2661;-54
2023/03/16 01:10:37;;;;;;;;;;;;;;;;;;1032630;28;4159;-55
2023/03/16 01:11:09;;;;;;;;;;;;;;;;;;1035450;28;1670;-51
2023/03/16 01:11:41;;;;;;;;;;;;;;;;;;1032359;28;3871;-56
2023/03/16 01:12:14;;;;;;;;;;;;;;;;;;1034083;28;3049;-55
2023/03/16 01:12:44;;;;;;;;;;;;;;;;;;1034642;28;4004;-54
2023/03/16 01:13:15;;;;;;;;;;;;;;;;;;1034743;28;1845;-52
2023/03/16 01:13:46;;;;;;;;;;;;;;;;;;1032706;28;4066;-55
2023/03/16 01:14:16;;;;;;;;;;;;;;;;;;1033181;28;3814;-55
2023/03/16 01:14:46;;;;;;;;;;;;;;;;;;1034502;28;2270;-55
2023/03/16 01:15:17;;;;;;;;;;;;;;;;;;1034137;28;4059;-55
2023/03/16 01:15:49;;;;;;;;;;;;;;;;;;1032176;28;2752;-53
2023/03/16 01:16:21;;;;;;;;;;;;;;;;;;1033606;28;4105;-57
2023/03/16 01:16:52;;;;;;;;;;;;;;;;;;1033126;28;1806;-54
2023/03/16 01:17:22;;;;;;;;;;;;;;;;;;1031209;28;3892;-54
2023/03/16 01:17:53;;;;;;;;;;;;;;;;;;1032087;28;2806;-56
2023/03/16 01:18:24;;;;;;;;;;;;;;;;;;1033713;28;4099;-54
2023/03/16 01:18:56;;;;;;;;;;;;;;;;;;1033323;28;2715;-56
2023/03/16 01:19:26;;;;;;;;;;;;;;;;;;1031571;28;4056;-54
2023/03/16 01:19:57;;;;;;;;;;;;;;;;;;1032660;28;2786;-56
2023/03/16 01:20:27;;;;;;;;;;;;;;;;;;1033913;28;3990;-55
2023/03/16 01:20:57;;;;;;;;;;;;;;;;;;1032097;28;2902;-54
2023/03/16 01:21:28;;;;;;;;;;;;;;;;;;1033954;28;3862;-54
2023/03/16 01:21:58;;;;;;;;;;;;;;;;;;1032600;28;2803;-54
2023/03/16 01:22:28;;;;;;;;;;;;;;;;;;1032603;28;4048;-54
2023/03/16 01:22:59;;;;;;;;;;;;;;;;;;1034179;28;2692;-57
2023/03/16 01:23:30;;;;;;;;;;;;;;;;;;1033191;28;4083;-54
2023/03/16 01:24:00;;;;;;;;;;;;;;;;;;1034947;28;2019;-55
2023/03/16 01:24:31;;;;;;;;;;;;;;;;;;1032912;28;4205;-56
2023/03/16 01:25:01;;;;;;;;;;;;;;;;;;1032263;28;2830;-53
2023/03/16 01:25:31;;;;;;;;;;;;;;;;;;1033282;28;4020;-54
2023/03/16 01:26:01;;;;;;;;;;;;;;;;;;1032831;28;2814;-53
2023/03/16 01:26:32;;;;;;;;;;;;;;;;;;1032783;28;3903;-55
2023/03/16 01:27:03;;;;;;;;;;;;;;;;;;1034734;28;2885;-53
2023/03/16 01:27:33;;;;;;;;;;;;;;;;;;1035096;28;3880;-55
2023/03/16 01:28:04;;;;;;;;;;;;;;;;;;1035473;28;1759;-54
2023/03/16 01:28:34;;;;;;;;;;;;;;;;;;1033884;28;3875;-56
2023/03/16 01:29:05;;;;;;;;;;;;;;;;;;1034536;28;2831;-53
2023/03/16 01:29:35;;;;;;;;;;;;;;;;;;1029578;28;3934;-54
2023/03/16 01:30:05;;;;;;;;;;;;;;;;;;1034360;28;2781;-55
2023/03/16 01:30:36;;;;;;;;;;;;;;;;;;1033408;28;3875;-54
2023/03/16 01:31:08;;;;;;;;;;;;;;;;;;1034518;28;2949;-52
2023/03/16 01:31:38;;;;;;;;;;;;;;;;;;1031837;28;4078;-54
2023/03/16 01:32:08;;;;;;;;;;;;;;;;;;1036768;28;1694;-56
2023/03/16 01:32:39;;;;;;;;;;;;;;;;;;1033064;28;4302;-54
2023/03/16 01:33:09;;;;;;;;;;;;;;;;;;1033372;28;2937;-55
2023/03/16 01:33:40;;;;;;;;;;;;;;;;;;1034535;28;4017;-55
2023/03/16 01:34:15;;;;;;;;;;;;;;;;;;1033860;28;1934;-51
2023/03/16 01:34:45;;;;;;;;;;;;;;;;;;1033060;28;3812;-56
2023/03/16 01:35:16;;;;;;;;;;;;;;;;;;1031032;28;4006;-51
2023/03/16 01:35:56;;;;;;;;;;;;;;;;;;1032928;28;2925;-57
2023/03/16 01:36:26;;;;;;;;;;;;;;;;;;1032990;28;3921;-56
2023/03/16 01:36:56;;;;;;;;;;;;;;;;;;1035393;28;1672;-56
2023/03/16 01:37:27;;;;;;;;;;;;;;;;;;1032167;28;4058;-53
2023/03/16 01:37:57;;;;;;;;;;;;;;;;;;1034578;28;2500;-55
2023/03/16 01:38:27;;;;;;;;;;;;;;;;;;1033751;28;4168;-53
2023/03/16 01:38:58;;;;;;;;;;;;;;;;;;1035602;28;1665;-54
2023/03/16 01:39:29;;;;;;;;;;;;;;;;;;1033314;28;4050;-56
2023/03/16 01:39:59;;;;;;;;;;;;;;;;;;1035460;28;2742;-56
2023/03/16 01:40:30;;;;;;;;;;;;;;;;;;1032040;28;4025;-54
2023/03/16 01:41:00;;;;;;;;;;;;;;;;;;1033695;28;2688;-55
2023/03/16 01:41:31;;;;;;;;;;;;;;;;;;1032556;28;4048;-55
2023/03/16 01:42:02;;;;;;;;;;;;;;;;;;1034664;28;1820;-54
2023/03/16 01:42:40;;;;;;;;;;;;;;;;;;1032632;28;3815;-50
2023/03/16 01:43:10;;;;;;;;;;;;;;;;;;1034876;28;1774;-57
2023/03/16 01:43:42;;;;;;;;;;;;;;;;;;1033212;28;3981;-56
2023/03/16 01:44:13;;;;;;;;;;;;;;;;;;1033120;28;2568;-54
2023/03/16 01:44:54;;;;;;;;;;;;;;;;;;1032490;28;5012;-53
2023/03/16 01:45:43;;;;;;;;;;;;;;;;;;1033261;28;3908;-55
2023/03/16 01:46:16;;;;;;;;;;;;;;;;;;1032871;28;2386;-54
2023/03/16 01:46:47;;;;;;;;;;;;;;;;;;1034428;28;3889;-54
2023/03/16 01:47:17;;;;;;;;;;;;;;;;;;1032014;28;4093;-53
2023/03/16 01:47:47;;;;;;;;;;;;;;;;;;1035527;28;1754;-54
2023/03/16 01:48:19;;;;;;;;;;;;;;;;;;1033508;28;4055;-55
2023/03/16 01:49:01;;;;;;;;;;;;;;;;;;1034569;28;1741;-53
2023/03/16 01:49:36;;;;;;;;;;;;;;;;;;1034291;28;4012;-55
2023/03/16 01:50:06;;;;;;;;;;;;;;;;;;1035299;28;1854;-52
2023/03/16 01:50:36;;;;;;;;;;;;;;;;;;1034091;28;4030;-53
2023/03/16 01:51:27;;;;;;;;;;;;;;;;;;1035203;28;2704;-54
2023/03/16 01:51:59;;;;;;;;;;;;;;;;;;1033481;28;3794;-55
2023/03/16 01:52:32;;;;;;;;;;;;;;;;;;1033968;28;3980;-56
2023/03/16 01:53:02;;;;;;;;;;;;;;;;;;1033589;28;2713;-54
2023/03/16 01:53:33;;;;;;;;;;;;;;;;;;1032552;28;3955;-53
2023/03/16 01:54:23;;;;;;;;;;;;;;;;;;1035047;28;2731;-54
2023/03/16 01:55:12;;;;;;;;;;;;;;;;;;1037790;28;3970;-56
2023/03/16 01:55:43;;;;;;;;;;;;;;;;;;1038011;28;4249;-55
2023/03/16 01:56:17;;;;;;;;;;;;;;;;;;1038167;28;3095;-54
2023/03/16 01:56:50;;;;;;;;;;;;;;;;;;1037649;28;4020;-54
2023/03/16 01:57:34;;;;;;;;;;;;;;;;;;1037889;28;3992;-56
2023/03/16 01:58:04;;;;;;;;;;;;;;;;;;1038841;28;2630;-53
2023/03/16 01:58:35;;;;;;;;;;;;;;;;;;1037228;28;4045;-54
2023/03/16 01:59:08;;;;;;;;;;;;;;;;;;1038619;28;2261;-53
2023/03/16 01:59:43;;;;;;;;;;;;;;;;;;1037112;28;3988;-54
2023/03/16 02:00:18;;;;;;;;;;;;;;;;;;1037252;28;2332;-56
2023/03/16 02:00:48;;;;;;;;;;;;;;;;;;1036348;28;3744;-53
2023/03/16 02:01:19;;;;;;;;;;;;;;;;;;1036286;28;3914;-55
2023/03/16 02:01:50;;;;;;;;;;;;;;;;;;1038517;28;1864;-55
2023/03/16 02:02:22;;;;;;;;;;;;;;;;;;1038589;28;3986;-54
2023/03/16 02:02:59;;;;;;;;;;;;;;;;;;1039668;28;2750;-54
2023/03/16 02:03:33;;;;;;;;;;;;;;;;;;1037010;28;4012;-52
2023/03/16 02:04:16;;;;;;;;;;;;;;;;;;1037828;28;1899;-56
2023/03/16 02:04:56;;;;;;;;;;;;;;;;;;1037997;28;3862;-53
2023/03/16 02:05:37;;;;;;;;;;;;;;;;;;1036859;28;3870;-54
2023/03/16 02:06:13;;;;;;;;;;;;;;;;;;1038059;28;2804;-55
2023/03/16 02:06:44;;;;;;;;;;;;;;;;;;1037436;28;3880;-54
2023/03/16 02:07:16;;;;;;;;;;;;;;;;;;1037179;28;2967;-56
2023/03/16 02:07:47;;;;;;;;;;;;;;;;;;1038104;28;3823;-54
2023/03/16 02:08:17;;;;;;;;;;;;;;;;;;1039267;28;4051;-56
2023/03/16 02:08:48;;;;;;;;;;;;;;;;;;1038297;28;1670;-54
2023/03/16 02:09:19;;;;;;;;;;;;;;;;;;1037640;28;3857;-56
2023/03/16 02:09:51;;;;;;;;;;;;;;;;;;1035501;28;2223;-53
2023/03/16 02:10:23;;;;;;;;;;;;;;;;;;1037876;28;3973;-56
2023/03/16 02:10:55;;;;;;;;;;;;;;;;;;1036809;28;2931;-54
2023/03/16 02:11:25;;;;;;;;;;;;;;;;;;1036190;28;4000;-57
2023/03/16 02:11:55;;;;;;;;;;;;;;;;;;1038370;28;2243;-55
2023/03/16 02:12:26;;;;;;;;;;;;;;;;;;1037549;28;3886;-53
2023/03/16 02:12:57;;;;;;;;;;;;;;;;;;1039019;28;1909;-56
2023/03/16 02:13:31;;;;;;;;;;;;;;;;;;1034331;28;3891;-55
2023/03/16 02:14:05;;;;;;;;;;;;;;;;;;1038088;28;1909;-56
2023/03/16 02:14:35;;;;;;;;;;;;;;;;;;1037518;28;4214;-57
2023/03/16 02:15:05;;;;;;;;;;;;;;;;;;1036146;28;2745;-55
2023/03/16 02:15:36;;;;;;;;;;;;;;;;;;1037295;28;4272;-56
2023/03/16 02:16:07;;;;;;;;;;;;;;;;;;1038051;28;2530;-54
2023/03/16 02:16:38;;;;;;;;;;;;;;;;;;1035596;28;4035;-55
2023/03/16 02:17:08;;;;;;;;;;;;;;;;;;1033444;28;2847;-55
2023/03/16 02:17:39;;;;;;;;;;;;;;;;;;1034160;28;4054;-52
2023/03/16 02:18:10;;;;;;;;;;;;;;;;;;1034046;28;1959;-56
2023/03/16 02:18:40;;;;;;;;;;;;;;;;;;1036708;28;4771;-55
2023/03/16 02:19:15;;;;;;;;;;;;;;;;;;1039129;28;1922;-53
2023/03/16 02:19:56;;;;;;;;;;;;;;;;;;1037003;28;3982;-55
2023/03/16 02:20:36;;;;;;;;;;;;;;;;;;1038233;28;4045;-57
2023/03/16 02:21:25;;;;;;;;;;;;;;;;;;1037773;28;2770;-55
2023/03/16 02:22:00;;;;;;;;;;;;;;;;;;1037250;28;3786;-55
2023/03/16 02:22:35;;;;;;;;;;;;;;;;;;1037706;28;4044;-57
2023/03/16 02:23:07;;;;;;;;;;;;;;;;;;1038378;28;1593;-53
2023/03/16 02:23:37;;;;;;;;;;;;;;;;;;1037550;28;3994;-54
2023/03/16 02:24:08;;;;;;;;;;;;;;;;;;1037949;28;2206;-54
2023/03/16 02:24:39;;;;;;;;;;;;;;;;;;1037246;28;3882;-57
2023/03/16 02:25:10;;;;;;;;;;;;;;;;;;1037297;28;2553;-56
2023/03/16 02:25:40;;;;;;;;;;;;;;;;;;1035758;28;3857;-56
2023/03/16 02:26:34;;;;;;;;;;;;;;;;;;1038037;28;2523;-55
2023/03/16 02:27:07;;;;;;;;;;;;;;;;;;1036210;28;3984;-56
2023/03/16 02:28:02;;;;;;;;;;;;;;;;;;1037474;28;3839;-55
2023/03/16 02:28:36;;;;;;;;;;;;;;;;;;1035752;28;3919;-55
2023/03/16 02:29:21;;;;;;;;;;;;;;;;;;1034440;28;1965;-54
2023/03/16 02:29:54;;;;;;;;;;;;;;;;;;1038505;28;3813;-52
2023/03/16 02:30:26;;;;;;;;;;;;;;;;;;1035607;28;3977;-55
2023/03/16 02:30:56;;;;;;;;;;;;;;;;;;1036765;28;2201;-56
2023/03/16 02:31:27;;;;;;;;;;;;;;;;;;1037325;28;4025;-54
2023/03/16 02:31:58;;;;;;;;;;;;;;;;;;1038576;28;1859;-56
2023/03/16 02:32:30;;;;;;;;;;;;;;;;;;1036228;28;4113;-56
2023/03/16 02:33:01;;;;;;;;;;;;;;;;;;1037590;28;1472;-53
2023/03/16 02:33:32;;;;;;;;;;;;;;;;;;1039112;28;4078;-53
2023/03/16 02:34:03;;;;;;;;;;;;;;;;;;1037116;28;1808;-54
2023/03/16 02:34:33;;;;;;;;;;;;;;;;;;1037904;28;3884;-52
2023/03/16 02:35:04;;;;;;;;;;;;;;;;;;1036344;28;2816;-53
2023/03/16 02:35:34;;;;;;;;;;;;;;;;;;1037686;28;4133;-56
2023/03/16 02:36:05;;;;;;;;;;;;;;;;;;1038430;28;2302;-53
2023/03/16 02:36:36;;;;;;;;;;;;;;;;;;1038593;28;4066;-55
2023/03/16 02:37:07;;;;;;;;;;;;;;;;;;1036868;28;2297;-53
2023/03/16 02:37:38;;;;;;;;;;;;;;;;;;1038229;28;4052;-54
2023/03/16 02:38:08;;;;;;;;;;;;;;;;;;1040419;28;1972;-56
2023/03/16 02:38:39;;;;;;;;;;;;;;;;;;1034892;28;3847;-55
2023/03/16 02:39:09;;;;;;;;;;;;;;;;;;1032486;28;2233;-55
2023/03/16 02:39:42;;;;;;;;;;;;;;;;;;1034326;28;4027;-54
2023/03/16 02:40:20;;;;;;;;;;;;;;;;;;1034071;28;2830;-55
2023/03/16 02:40:57;;;;;;;;;;;;;;;;;;1031767;28;3685;-51
2023/03/16 02:41:27;;;;;;;;;;;;;;;;;;1032306;28;4023;-55
2023/03/16 02:41:57;;;;;;;;;;;;;;;;;;1034339;28;2125;-53
2023/03/16 02:42:28;;;;;;;;;;;;;;;;;;1034076;28;3949;-56
2023/03/16 02:43:02;;;;;;;;;;;;;;;;;;1032899;28;2146;-56
2023/03/16 02:43:33;;;;;;;;;;;;;;;;;;1034418;28;3752;-56
2023/03/16 02:44:13;;;;;;;;;;;;;;;;;;1034212;28;2086;-54
2023/03/16 02:44:46;;;;;;;;;;;;;;;;;;1032550;28;3819;-55
2023/03/16 02:45:16;;;;;;;;;;;;;;;;;;1032620;28;3927;-52
2023/03/16 02:45:46;;;;;;;;;;;;;;;;;;1033199;28;2681;-54
2023/03/16 02:46:18;;;;;;;;;;;;;;;;;;1033036;28;4205;-55
2023/03/16 02:46:48;;;;;;;;;;;;;;;;;;1033134;28;1893;-55
2023/03/16 02:47:35;;;;;;;;;;;;;;;;;;1034394;28;4041;-55
2023/03/16 02:48:08;;;;;;;;;;;;;;;;;;1034858;28;1719;-55
2023/03/16 02:48:46;;;;;;;;;;;;;;;;;;1033116;28;3953;-55
2023/03/16 02:49:33;;;;;;;;;;;;;;;;;;1033456;28;4541;-56
2023/03/16 02:50:06;;;;;;;;;;;;;;;;;;1035115;28;1844;-56
2023/03/16 02:50:41;;;;;;;;;;;;;;;;;;1033208;28;4045;-56
2023/03/16 02:51:11;;;;;;;;;;;;;;;;;;1034207;28;1648;-54
2023/03/16 02:51:44;;;;;;;;;;;;;;;;;;1033571;28;3992;-56
2023/03/16 02:52:14;;;;;;;;;;;;;;;;;;1033189;28;1924;-55
2023/03/16 02:52:46;;;;;;;;;;;;;;;;;;1031825;28;3848;-53
2023/03/16 02:53:17;;;;;;;;;;;;;;;;;;1031817;28;3881;-55
2023/03/16 02:53:47;;;;;;;;;;;;;;;;;;1032035;28;2735;-54
2023/03/16 02:54:18;;;;;;;;;;;;;;;;;;1032768;28;4042;-55
2023/03/16 02:54:48;;;;;;;;;;;;;;;;;;1033965;28;2021;-54
2023/03/16 02:55:20;;;;;;;;;;;;;;;;;;1030274;28;3896;-54
2023/03/16 02:55:50;;;;;;;;;;;;;;;;;;1032133;28;2766;-56
2023/03/16 02:56:21;;;;;;;;;;;;;;;;;;1032871;28;4100;-51
2023/03/16 02:56:51;;;;;;;;;;;;;;;;;;1033491;28;1919;-53
2023/03/16 02:57:21;;;;;;;;;;;;;;;;;;1034067;28;4175;-55
2023/03/16 02:57:52;;;;;;;;;;;;;;;;;;1033373;28;2503;-55
2023/03/16 02:58:22;;;;;;;;;;;;;;;;;;1031394;28;3921;-54
2023/03/16 02:58:52;;;;;;;;;;;;;;;;;;1033312;28;2594;-54
2023/03/16 02:59:23;;;;;;;;;;;;;;;;;;1033523;28;4057;-56
2023/03/16 02:59:53;;;;;;;;;;;;;;;;;;1034882;28;1683;-56
2023/03/16 03:00:23;;;;;;;;;;;;;;;;;;1030685;28;3910;-54
2023/03/16 03:00:54;;;;;;;;;;;;;;;;;;1033563;28;2197;-55
2023/03/16 03:01:24;;;;;;;;;;;;;;;;;;1033400;28;4053;-52
2023/03/16 03:01:55;;;;;;;;;;;;;;;;;;1034660;28;1676;-56
2023/03/16 03:02:25;;;;;;;;;;;;;;;;;;1030901;28;3915;-53
2023/03/16 03:02:55;;;;;;;;;;;;;;;;;;1035696;28;2909;-57
2023/03/16 03:03:25;;;;;;;;;;;;;;;;;;1034227;28;3918;-56
2023/03/16 03:03:56;;;;;;;;;;;;;;;;;;1034851;28;1794;-55
2023/03/16 03:04:26;;;;;;;;;;;;;;;;;;1031016;28;3801;-55
2023/03/16 03:04:56;;;;;;;;;;;;;;;;;;1032837;28;2842;-52
2023/03/16 03:05:27;;;;;;;;;;;;;;;;;;1031418;28;3801;-55
2023/03/16 03:05:57;;;;;;;;;;;;;;;;;;1034696;28;2629;-55
2023/03/16 03:06:27;;;;;;;;;;;;;;;;;;1032030;28;3916;-56
2023/03/16 03:07:03;;;;;;;;;;;;;;;;;;1028411;28;2464;-56
2023/03/16 03:07:33;;;;;;;;;;;;;;;;;;1034589;28;3879;-56
2023/03/16 03:08:04;;;;;;;;;;;;;;;;;;1033788;28;2276;-54
2023/03/16 03:08:34;;;;;;;;;;;;;;;;;;1031472;28;4129;-55
2023/03/16 03:09:05;;;;;;;;;;;;;;;;;;1032470;28;2900;-54
2023/03/16 03:09:35;;;;;;;;;;;;;;;;;;1031649;28;3768;-55
2023/03/16 03:10:05;;;;;;;;;;;;;;;;;;1031842;28;2208;-54
2023/03/16 03:10:36;;;;;;;;;;;;;;;;;;1031197;28;4073;-56
2023/03/16 03:11:07;;;;;;;;;;;;;;;;;;1031257;28;1923;-55
2023/03/16 03:11:37;;;;;;;;;;;;;;;;;;1033882;28;3923;-56
2023/03/16 03:12:08;;;;;;;;;;;;;;;;;;1034390;28;3017;-54
2023/03/16 03:12:38;;;;;;;;;;;;;;;;;;1035670;28;3864;-50
2023/03/16 03:13:09;;;;;;;;;;;;;;;;;;1032951;28;1858;-55
2023/03/16 03:13:43;;;;;;;;;;;;;;;;;;1031530;28;3773;-55
2023/03/16 03:14:15;;;;;;;;;;;;;;;;;;1033812;28;1671;-57
2023/03/16 03:14:45;;;;;;;;;;;;;;;;;;1035071;28;3879;-56
2023/03/16 03:15:17;;;;;;;;;;;;;;;;;;1029281;28;4058;-52
2023/03/16 03:15:47;;;;;;;;;;;;;;;;;;1033576;28;2109;-55
2023/03/16 03:16:17;;;;;;;;;;;;;;;;;;1034523;28;4014;-57
2023/03/16 03:16:47;;;;;;;;;;;;;;;;;;1031184;28;2191;-56
2023/03/16 03:17:18;;;;;;;;;;;;;;;;;;1029803;28;3854;-57
2023/03/16 03:17:48;;;;;;;;;;;;;;;;;;1034264;28;2892;-56
2023/03/16 03:18:18;;;;;;;;;;;;;;;;;;1032920;28;3932;-54
2023/03/16 03:18:51;;;;;;;;;;;;;;;;;;1033984;28;2713;-55
2023/03/16 03:19:22;;;;;;;;;;;;;;;;;;1033946;28;4085;-52
2023/03/16 03:19:52;;;;;;;;;;;;;;;;;;1035111;28;1776;-56
2023/03/16 03:20:22;;;;;;;;;;;;;;;;;;1032553;28;4064;-53
2023/03/16 03:20:52;;;;;;;;;;;;;;;;;;1033415;28;2658;-55
2023/03/16 03:21:23;;;;;;;;;;;;;;;;;;1032029;28;3856;-55
2023/03/16 03:21:55;;;;;;;;;;;;;;;;;;1033424;28;2369;-53
2023/03/16 03:22:26;;;;;;;;;;;;;;;;;;1033344;28;4106;-56
2023/03/16 03:22:56;;;;;;;;;;;;;;;;;;1033287;28;3082;-56
2023/03/16 03:23:26;;;;;;;;;;;;;;;;;;1033138;28;3871;-57
2023/03/16 03:23:57;;;;;;;;;;;;;;;;;;1031155;28;3062;-52
2023/03/16 03:24:27;;;;;;;;;;;;;;;;;;1030497;28;4081;-55
2023/03/16 03:24:57;;;;;;;;;;;;;;;;;;1033335;28;2832;-55
2023/03/16 03:25:28;;;;;;;;;;;;;;;;;;1033431;28;3863;-54
2023/03/16 03:25:58;;;;;;;;;;;;;;;;;;1033855;28;2805;-57
2023/03/16 03:26:29;;;;;;;;;;;;;;;;;;1033736;28;4028;-55
2023/03/16 03:27:00;;;;;;;;;;;;;;;;;;1033013;28;2673;-57
2023/03/16 03:27:32;;;;;;;;;;;;;;;;;;1033229;28;3990;-53
2023/03/16 03:28:04;;;;;;;;;;;;;;;;;;1034593;28;1867;-54
2023/03/16 03:28:34;;;;;;;;;;;;;;;;;;1033182;28;4091;-51
2023/03/16 03:29:04;;;;;;;;;;;;;;;;;;1032731;28;2899;-55
2023/03/16 03:29:35;;;;;;;;;;;;;;;;;;1033676;28;4005;-55
2023/03/16 03:30:05;;;;;;;;;;;;;;;;;;1033371;28;2226;-56
2023/03/16 03:30:36;;;;;;;;;;;;;;;;;;1030274;28;4051;-56
2023/03/16 03:31:06;;;;;;;;;;;;;;;;;;1032410;28;1875;-56
2023/03/16 03:31:37;;;;;;;;;;;;;;;;;;1034522;28;4017;-54
2023/03/16 03:32:07;;;;;;;;;;;;;;;;;;1035012;28;1669;-54
2023/03/16 03:32:38;;;;;;;;;;;;;;;;;;1032010;28;3848;-56
2023/03/16 03:33:08;;;;;;;;;;;;;;;;;;1032167;28;2823;-55
2023/03/16 03:33:39;;;;;;;;;;;;;;;;;;1032322;28;4121;-54
2023/03/16 03:34:10;;;;;;;;;;;;;;;;;;1033617;28;1704;-54
2023/03/16 03:34:41;;;;;;;;;;;;;;;;;;1032617;28;4030;-54
2023/03/16 03:35:13;;;;;;;;;;;;;;;;;;1031458;28;2746;-55
2023/03/16 03:35:43;;;;;;;;;;;;;;;;;;1034673;28;3898;-56
2023/03/16 03:36:13;;;;;;;;;;;;;;;;;;1034191;28;1996;-54
2023/03/16 03:36:44;;;;;;;;;;;;;;;;;;1032163;28;4008;-54
2023/03/16 03:37:14;;;;;;;;;;;;;;;;;;1034775;28;1940;-54
2023/03/16 03:37:44;;;;;;;;;;;;;;;;;;1031615;28;4091;-53
2023/03/16 03:38:15;;;;;;;;;;;;;;;;;;1034548;28;2841;-53
2023/03/16 03:38:45;;;;;;;;;;;;;;;;;;1034677;28;4259;-54
2023/03/16 03:39:15;;;;;;;;;;;;;;;;;;1033197;28;2272;-53
2023/03/16 03:39:47;;;;;;;;;;;;;;;;;;1030927;28;3827;-54
2023/03/16 03:40:18;;;;;;;;;;;;;;;;;;1031783;28;4435;-54
2023/03/16 03:40:52;;;;;;;;;;;;;;;;;;1033429;28;2744;-53
2023/03/16 03:41:22;;;;;;;;;;;;;;;;;;1032740;28;4027;-54